createdAt,value
2022-11-10T00:02:15.582Z,14.90
2022-11-10T00:07:18.803Z,14.84
2022-11-10T00:12:24.206Z,14.87
2022-11-10T00:17:27.340Z,14.90
2022-11-10T00:22:30.598Z,14.91
2022-11-10T00:27:35.570Z,14.82
2022-11-10T00:32:38.732Z,14.85
2022-11-10T00:37:41.954Z,14.87
2022-11-10T00:42:46.479Z,14.88
2022-11-10T00:47:49.663Z,14.87
2022-11-10T00:52:52.804Z,14.85
2022-11-10T00:57:57.406Z,14.83
2022-11-10T01:03:02.691Z,14.84
2022-11-10T01:08:06.524Z,14.78
2022-11-10T01:13:11.145Z,14.77
2022-11-10T01:18:14.374Z,14.75
2022-11-10T01:23:17.495Z,14.77
2022-11-10T01:28:22.055Z,14.78
2022-11-10T01:33:25.243Z,14.75
2022-11-10T01:38:29.299Z,14.72
2022-11-10T01:43:34.630Z,14.68
2022-11-10T01:48:42.181Z,14.64
2022-11-10T01:53:48.475Z,14.60
2022-11-10T01:58:59.286Z,14.59
2022-11-10T02:04:05.016Z,14.62
2022-11-10T02:09:08.775Z,14.64
2022-11-10T02:14:14.468Z,14.62
2022-11-10T02:19:21.052Z,14.60
2022-11-10T02:24:25.593Z,14.62
2022-11-10T02:29:28.757Z,14.61
2022-11-10T02:34:31.959Z,14.60
2022-11-10T02:39:36.551Z,14.55
2022-11-10T02:44:40.150Z,14.56
2022-11-10T02:49:45.103Z,14.58
2022-11-10T02:54:49.670Z,14.57
2022-11-10T02:59:53.130Z,14.58
2022-11-10T03:04:56.250Z,14.57
2022-11-10T03:10:00.838Z,14.55
2022-11-10T03:15:03.993Z,14.55
2022-11-10T03:20:07.943Z,14.56
2022-11-10T03:25:13.096Z,14.57
2022-11-10T03:30:16.398Z,14.57
2022-11-10T03:35:19.841Z,14.56
2022-11-10T03:40:24.378Z,14.55
2022-11-10T03:45:27.533Z,14.54
2022-11-10T03:50:30.692Z,14.58
2022-11-10T03:55:35.288Z,14.59
2022-11-10T04:00:38.583Z,14.56
2022-11-10T04:05:59.461Z,14.58
2022-11-10T04:11:04.702Z,14.59
2022-11-10T04:16:08.095Z,14.55
2022-11-10T04:21:12.286Z,14.52
2022-11-10T04:26:33.722Z,14.48
2022-11-10T04:31:38.787Z,14.47
2022-11-10T04:36:44.016Z,14.47
2022-11-10T04:41:48.903Z,14.45
2022-11-10T04:46:52.054Z,14.45
2022-11-10T04:51:55.239Z,14.45
2022-11-10T04:56:59.802Z,14.44
2022-11-10T05:02:02.940Z,14.43
2022-11-10T05:07:06.135Z,14.45
2022-11-10T05:12:10.770Z,14.44
2022-11-10T05:17:13.954Z,14.39
2022-11-10T05:22:17.118Z,14.39
2022-11-10T05:27:21.810Z,14.35
2022-11-10T05:32:24.972Z,14.41
2022-11-10T05:37:28.100Z,14.39
2022-11-10T05:42:32.659Z,14.34
2022-11-10T05:47:37.650Z,14.34
2022-11-10T05:52:47.593Z,14.34
2022-11-10T05:57:55.966Z,14.33
2022-11-10T06:03:00.855Z,14.32
2022-11-10T06:08:06.290Z,14.34
2022-11-10T06:13:11.859Z,14.32
2022-11-10T06:18:15.034Z,14.32
2022-11-10T06:23:18.178Z,14.33
2022-11-10T06:28:22.746Z,14.35
2022-11-10T06:33:26.063Z,14.32
2022-11-10T06:38:29.166Z,14.31
2022-11-10T06:43:33.830Z,14.29
2022-11-10T06:48:36.952Z,14.28
2022-11-10T06:53:40.101Z,14.28
2022-11-10T06:58:44.669Z,14.21
2022-11-10T07:04:12.967Z,14.10
2022-11-10T07:09:11.126Z,13.97
2022-11-10T07:14:15.678Z,13.87
2022-11-10T07:19:18.806Z,13.81
2022-11-10T07:24:21.915Z,13.77
2022-11-10T07:29:27.012Z,13.76
2022-11-10T07:34:30.169Z,13.79
2022-11-10T07:39:33.327Z,13.82
2022-11-10T07:44:37.918Z,13.84
2022-11-10T07:49:41.356Z,13.88
2022-11-10T07:54:44.493Z,13.91
2022-11-10T07:59:51.726Z,13.91
2022-11-10T08:04:56.102Z,13.97
2022-11-10T08:09:59.403Z,14.03
2022-11-10T08:15:04.011Z,14.11
2022-11-10T08:20:09.226Z,14.09
2022-11-10T08:25:12.424Z,14.17
2022-11-10T08:30:17.794Z,14.28
2022-11-10T08:35:20.950Z,14.41
2022-11-10T08:40:27.864Z,14.55
2022-11-10T08:45:32.474Z,14.70
2022-11-10T08:50:36.062Z,14.58
2022-11-10T08:55:39.249Z,14.61
2022-11-10T09:00:43.885Z,14.66
2022-11-10T09:05:47.738Z,14.68
2022-11-10T09:10:51.313Z,14.84
2022-11-10T09:15:55.881Z,15.02
2022-11-10T09:20:59.211Z,15.18
2022-11-10T09:26:02.335Z,15.27
2022-11-10T09:31:06.985Z,15.33
2022-11-10T09:36:10.378Z,15.40
2022-11-10T09:41:16.307Z,15.66
2022-11-10T09:46:27.723Z,15.85
2022-11-10T09:51:35.666Z,16.03
2022-11-10T09:56:39.878Z,16.13
2022-11-10T10:01:49.454Z,16.23
2022-11-10T10:07:10.849Z,16.37
2022-11-10T10:12:24.804Z,16.51
2022-11-10T10:17:40.793Z,16.62
2022-11-10T10:22:57.300Z,16.81
2022-11-10T10:28:07.711Z,16.92
2022-11-10T10:33:16.698Z,17.06
2022-11-10T10:38:24.971Z,17.11
2022-11-10T10:43:28.383Z,17.43
2022-11-10T10:48:32.949Z,17.54
2022-11-10T10:53:46.596Z,17.48
2022-11-10T10:58:53.397Z,17.48
2022-11-10T11:03:58.533Z,17.30
2022-11-10T11:09:07.475Z,17.12
2022-11-10T11:14:21.325Z,16.95
2022-11-10T11:19:28.736Z,17.13
2022-11-10T11:24:39.503Z,16.94
2022-11-10T11:29:55.790Z,16.91
2022-11-10T11:35:08.187Z,16.90
2022-11-10T11:40:26.147Z,16.81
2022-11-10T11:45:38.137Z,16.69
2022-11-10T11:50:50.532Z,16.80
2022-11-10T11:56:08.877Z,16.87
2022-11-10T12:01:33.469Z,16.95
2022-11-10T12:06:49.165Z,17.21
2022-11-10T12:12:04.210Z,17.43
2022-11-10T12:17:14.048Z,17.62
2022-11-10T12:22:32.807Z,17.96
2022-11-10T12:27:40.950Z,18.20
2022-11-10T12:32:49.590Z,18.90
2022-11-10T12:38:00.206Z,19.05
2022-11-10T12:43:06.203Z,20.51
2022-11-10T12:48:12.965Z,21.38
2022-11-10T12:53:23.908Z,20.89
2022-11-10T12:58:27.628Z,21.09
2022-11-10T13:03:33.150Z,21.79
2022-11-10T13:08:46.993Z,22.39
2022-11-10T13:13:59.504Z,22.25
2022-11-10T13:19:03.445Z,22.79
2022-11-10T13:24:25.056Z,22.74
2022-11-10T13:29:32.295Z,22.89
2022-11-10T13:34:36.734Z,22.76
2022-11-10T13:39:41.479Z,22.57
2022-11-10T13:44:47.944Z,23.16
2022-11-10T13:50:02.829Z,22.97
2022-11-10T13:55:20.463Z,22.98
2022-11-10T14:00:27.480Z,23.18
2022-11-10T14:06:05.906Z,22.95
2022-11-10T14:11:19.222Z,22.52
2022-11-10T14:16:26.333Z,22.07
2022-11-10T14:21:37.456Z,21.96
2022-11-10T14:26:45.614Z,21.90
2022-11-10T14:31:50.709Z,22.16
2022-11-10T14:36:55.730Z,22.36
2022-11-10T14:42:03.999Z,22.75
2022-11-10T14:47:24.038Z,22.85
2022-11-10T14:52:27.327Z,22.54
2022-11-10T14:57:31.888Z,22.62
2022-11-10T15:02:35.224Z,22.98
2022-11-10T15:07:38.666Z,22.97
2022-11-10T15:12:43.550Z,22.63
2022-11-10T15:17:48.334Z,21.67
2022-11-10T15:22:51.728Z,21.59
2022-11-10T15:28:00.602Z,21.72
2022-11-10T15:33:11.527Z,21.98
2022-11-10T15:38:30.230Z,22.65
2022-11-10T15:43:34.861Z,22.83
2022-11-10T15:48:41.201Z,22.78
2022-11-10T15:53:46.152Z,22.49
2022-11-10T15:58:59.088Z,22.62
2022-11-10T16:04:04.150Z,22.73
2022-11-10T16:09:08.259Z,22.78
2022-11-10T16:14:15.618Z,22.48
2022-11-10T16:19:18.927Z,22.02
2022-11-10T16:24:22.438Z,21.58
2022-11-10T16:29:27.154Z,21.31
2022-11-10T16:34:30.474Z,21.19
2022-11-10T16:39:33.755Z,21.14
2022-11-10T16:44:42.290Z,20.86
2022-11-10T16:49:47.003Z,20.23
2022-11-10T16:54:49.967Z,19.68
2022-11-10T16:59:54.644Z,19.25
2022-11-10T17:04:58.309Z,18.94
2022-11-10T17:10:02.533Z,18.64
2022-11-10T17:15:08.306Z,18.42
2022-11-10T17:20:18.436Z,18.23
2022-11-10T17:25:26.247Z,18.02
2022-11-10T17:30:30.922Z,17.79
2022-11-10T17:35:40.218Z,17.65
2022-11-10T17:40:44.640Z,17.58
2022-11-10T17:45:49.491Z,17.41
2022-11-10T17:50:52.813Z,17.23
2022-11-10T17:55:56.138Z,17.10
2022-11-10T18:01:00.832Z,16.84
2022-11-10T18:06:07.243Z,16.91
2022-11-10T18:11:11.743Z,16.92
2022-11-10T18:16:16.456Z,16.87
2022-11-10T18:21:19.393Z,16.75
2022-11-10T18:26:22.632Z,16.72
2022-11-10T18:31:28.405Z,16.64
2022-11-10T18:36:31.717Z,16.46
2022-11-10T18:41:50.298Z,16.34
2022-11-10T18:46:55.136Z,16.20
2022-11-10T18:51:58.490Z,16.16
2022-11-10T18:57:01.765Z,16.14
2022-11-10T19:02:06.496Z,15.99
2022-11-10T19:07:09.539Z,15.85
2022-11-10T19:12:12.867Z,15.87
2022-11-10T19:17:17.532Z,15.68
2022-11-10T19:22:20.502Z,15.58
2022-11-10T19:27:23.953Z,15.62
2022-11-10T19:32:28.633Z,15.59
2022-11-10T19:37:34.862Z,15.46
2022-11-10T19:42:38.203Z,15.55
2022-11-10T19:47:43.052Z,15.45
2022-11-10T19:52:46.280Z,15.46
2022-11-10T19:57:49.536Z,15.40
2022-11-10T20:02:54.121Z,15.18
2022-11-10T20:08:12.416Z,15.13
2022-11-10T20:13:15.805Z,15.13
2022-11-10T20:18:20.541Z,15.07
2022-11-10T20:23:23.770Z,14.97
2022-11-10T20:28:27.305Z,14.98
2022-11-10T20:33:33.349Z,14.81
2022-11-10T20:38:37.682Z,14.75
2022-11-10T20:43:41.779Z,14.70
2022-11-10T20:48:47.786Z,14.70
2022-11-10T20:53:51.015Z,14.51
2022-11-10T20:58:54.270Z,14.44
2022-11-10T21:03:59.032Z,14.55
2022-11-10T21:09:01.953Z,14.59
2022-11-10T21:14:05.197Z,14.63
2022-11-10T21:19:10.101Z,14.61
2022-11-10T21:24:13.592Z,14.56
2022-11-10T21:29:17.014Z,14.48
2022-11-10T21:34:21.682Z,14.43
2022-11-10T21:39:24.961Z,14.44
2022-11-10T21:44:28.214Z,14.45
2022-11-10T21:49:33.124Z,14.42
2022-11-10T21:54:36.416Z,14.40
2022-11-10T21:59:39.683Z,14.37
2022-11-10T22:04:44.334Z,14.38
2022-11-10T22:10:05.260Z,14.32
2022-11-10T22:15:32.545Z,14.29
2022-11-10T22:20:37.205Z,14.26
2022-11-10T22:25:40.801Z,14.24
2022-11-10T22:30:44.052Z,14.18
2022-11-10T22:35:48.700Z,14.17
2022-11-10T22:41:09.391Z,14.10
2022-11-10T22:46:12.624Z,14.02
2022-11-10T22:51:17.302Z,14.05
2022-11-10T22:56:20.539Z,13.96
2022-11-10T23:01:23.796Z,13.76
2022-11-10T23:06:29.328Z,13.72
2022-11-10T23:11:34.063Z,13.62
2022-11-10T23:16:37.313Z,13.59
2022-11-10T23:21:42.075Z,13.54
2022-11-10T23:26:45.354Z,13.62
2022-11-10T23:31:48.532Z,13.82
2022-11-10T23:36:53.138Z,13.95
2022-11-10T23:41:56.427Z,14.04
2022-11-10T23:46:59.702Z,14.08
2022-11-10T23:52:04.429Z,14.09
2022-11-10T23:57:07.678Z,14.11
